Aérodrome :
LOGIN :

S'inscrire | Disclaimer

   EN    FR    IT 

 










Légende :    VFR   VFR Marginal   IFR   IFR Intensif   IFR Très Intensif
Visi : 
Plafond : 
>= 8 km
>= 3000ft
5 à 8 km
1000 à 3000 ft
1500m à 5 km
500 à 1000 ft
800 à 1500m
200 à 500 ft
< 800m
< 200 ft
Symboles :   Orages  Brouillard  Fortes neiges  Fortes précipitations  Vent > 20 kt
SIGMETs :   Divers  Orages  Givrage  Turbulence  Onde Orograph.  Cendres Volcan.







- Altitude de l'aérodrome : 158 ft
- Code IATA : QAR


EHDL - Deelen Airbase

DERNIER METAR :
  • 181325Z AUTO 23016KT 170V290 9999 NCD 26/13 Q1011 BLU

METARs EXPIRÉS :
  • 181255Z AUTO 21015KT 180V290 9999 NCD 26/14 Q1011 BLU
  • 181225Z AUTO 23013KT 170V260 9999 NCD 26/13 Q1011 BLU
  • 181155Z AUTO 23016KT 170V260 9999 NCD 26/13 Q1011 BLU
  • 181125Z AUTO 21015KT 170V270 9999 NCD 25/13 Q1011 BLU
  • 181055Z AUTO 20015KT 150V250 9999 NCD 25/14 Q1011 BLU

TAF TAF EHDL
Valide du 18 à 13h jusqu'au 19 à 01h UTC


181240Z 1813/1901 23014G24KT CAVOK
BECMG 1817/1819 22005KT
Pas de NOTAMs connus pour ce terrain.



MET'MAP, la Météo Aéronautique d'un coup d'oeil ! - Copyright ORBIFLY Décembre 2007 - Disclaimer

ORBIFLY MET'MAP TEAM :

Programmation & Développement : Alexandra Zaïnal
Conception & Développement : Baudouin d'Aumeries
Co-Programmation & Développement : Marc-Olivier Méhu
Soutien technique & logistique : Manuel Goepfert

Contact : metmap@orbifly.com




SOURCES & CREDITS :

   NOAA